Terminal Aerodrome Forecast
Issued by NWS Twin Cities, MN

Home | Current Version | Previous Version | Graphics & Text | Print | Product List | Glossary On
Versions: 1 2 3 4 5 6 7 8 9 10 11 12 13 14 15 16 17 18 19 20 21 22 23 24 25 26
000
FTUS43 KMPX 250525
TAFMSP
TAF
KMSP 250525Z 2506/2612 33008KT P6SM SCT200
     FM250800 35006KT P6SM BKN100
     FM251200 03007KT P6SM SCT020 OVC050
     FM252100 01009KT P6SM BKN040
     FM260300 35008KT P6SM SCT050=

USA.gov is the U.S. government's official web portal to all federal, state and local government web resources and services.